sensor_id;sensor_type;location;lat;lon;timestamp;temperature;humidity
66710;DHT22;53624;0.000;0.000;2023-09-18T00:02:15;21.90;99.90
66710;DHT22;53624;0.000;0.000;2023-09-18T00:04:44;21.90;99.90
66710;DHT22;53624;0.000;0.000;2023-09-18T00:07:11;22.00;99.90
66710;DHT22;53624;0.000;0.000;2023-09-18T00:09:38;22.00;99.90
66710;DHT22;53624;0.000;0.000;2023-09-18T00:12:06;22.00;99.90
66710;DHT22;53624;0.000;0.000;2023-09-18T00:14:35;22.00;99.90
66710;DHT22;53624;0.000;0.000;2023-09-18T00:17:03;22.00;99.90
66710;DHT22;53624;0.000;0.000;2023-09-18T00:19:30;22.00;99.90
66710;DHT22;53624;0.000;0.000;2023-09-18T00:22:00;22.00;99.90
66710;DHT22;53624;0.000;0.000;2023-09-18T00:24:27;22.00;99.90
66710;DHT22;53624;0.000;0.000;2023-09-18T00:26:55;22.00;99.90
66710;DHT22;53624;0.000;0.000;2023-09-18T00:29:22;22.00;99.90
66710;DHT22;53624;0.000;0.000;2023-09-18T00:31:49;21.90;99.90
66710;DHT22;53624;0.000;0.000;2023-09-18T00:34:17;21.90;99.90
66710;DHT22;53624;0.000;0.000;2023-09-18T00:36:44;22.00;99.90
66710;DHT22;53624;0.000;0.000;2023-09-18T00:39:13;22.00;99.90
66710;DHT22;53624;0.000;0.000;2023-09-18T00:41:41;22.00;99.90
66710;DHT22;53624;0.000;0.000;2023-09-18T00:44:08;22.00;99.90
66710;DHT22;53624;0.000;0.000;2023-09-18T00:46:36;22.00;99.90
66710;DHT22;53624;0.000;0.000;2023-09-18T00:49:03;21.90;99.90
66710;DHT22;53624;0.000;0.000;2023-09-18T00:51:30;21.90;99.90
66710;DHT22;53624;0.000;0.000;2023-09-18T00:53:58;22.00;99.90
66710;DHT22;53624;0.000;0.000;2023-09-18T00:56:27;21.90;99.90
66710;DHT22;53624;0.000;0.000;2023-09-18T00:58:55;22.10;99.90
66710;DHT22;53624;0.000;0.000;2023-09-18T01:01:22;22.10;99.90
66710;DHT22;53624;0.000;0.000;2023-09-18T01:03:50;22.10;99.90
66710;DHT22;53624;0.000;0.000;2023-09-18T01:06:19;22.00;99.90
66710;DHT22;53624;0.000;0.000;2023-09-18T01:08:47;22.00;99.90
66710;DHT22;53624;0.000;0.000;2023-09-18T01:11:19;22.10;99.90
66710;DHT22;53624;0.000;0.000;2023-09-18T01:13:49;22.10;99.90
66710;DHT22;53624;0.000;0.000;2023-09-18T01:16:20;22.10;99.90
66710;DHT22;53624;0.000;0.000;2023-09-18T01:18:51;22.00;99.90
66710;DHT22;53624;0.000;0.000;2023-09-18T01:21:19;22.00;99.90
66710;DHT22;53624;0.000;0.000;2023-09-18T01:23:48;22.00;99.90
66710;DHT22;53624;0.000;0.000;2023-09-18T01:26:17;21.90;99.90
66710;DHT22;53624;0.000;0.000;2023-09-18T01:28:44;21.90;99.90
66710;DHT22;53624;0.000;0.000;2023-09-18T01:31:12;22.00;99.90
66710;DHT22;53624;0.000;0.000;2023-09-18T01:33:39;21.90;99.90
66710;DHT22;53624;0.000;0.000;2023-09-18T01:36:06;21.90;99.90
66710;DHT22;53624;0.000;0.000;2023-09-18T01:38:34;21.90;99.90
66710;DHT22;53624;0.000;0.000;2023-09-18T01:41:04;21.70;99.90
66710;DHT22;53624;0.000;0.000;2023-09-18T01:43:31;21.80;99.90
66710;DHT22;53624;0.000;0.000;2023-09-18T01:45:58;21.80;99.90
66710;DHT22;53624;0.000;0.000;2023-09-18T01:48:26;21.80;99.90
66710;DHT22;53624;0.000;0.000;2023-09-18T01:50:53;21.80;99.90
66710;DHT22;53624;0.000;0.000;2023-09-18T01:53:20;21.80;99.90
66710;DHT22;53624;0.000;0.000;2023-09-18T01:55:47;21.80;99.90
66710;DHT22;53624;0.000;0.000;2023-09-18T01:58:16;21.80;99.90
66710;DHT22;53624;0.000;0.000;2023-09-18T02:00:43;21.80;99.90
66710;DHT22;53624;0.000;0.000;2023-09-18T02:03:11;21.80;99.90
66710;DHT22;53624;0.000;0.000;2023-09-18T02:05:38;21.80;99.90
66710;DHT22;53624;0.000;0.000;2023-09-18T02:08:07;21.80;99.90
66710;DHT22;53624;0.000;0.000;2023-09-18T02:10:34;21.80;99.90
66710;DHT22;53624;0.000;0.000;2023-09-18T02:13:02;21.80;99.90
66710;DHT22;53624;0.000;0.000;2023-09-18T02:15:31;21.80;99.90
66710;DHT22;53624;0.000;0.000;2023-09-18T02:17:58;21.80;99.90
66710;DHT22;53624;0.000;0.000;2023-09-18T02:20:25;21.60;99.90
66710;DHT22;53624;0.000;0.000;2023-09-18T02:22:54;21.70;99.90
66710;DHT22;53624;0.000;0.000;2023-09-18T02:25:21;21.70;99.90
66710;DHT22;53624;0.000;0.000;2023-09-18T02:27:49;21.60;99.90
66710;DHT22;53624;0.000;0.000;2023-09-18T02:30:17;21.60;99.90
66710;DHT22;53624;0.000;0.000;2023-09-18T02:32:46;21.70;99.90
66710;DHT22;53624;0.000;0.000;2023-09-18T02:35:14;21.60;99.90
66710;DHT22;53624;0.000;0.000;2023-09-18T02:37:41;21.60;99.90
66710;DHT22;53624;0.000;0.000;2023-09-18T02:40:09;21.60;99.90
66710;DHT22;53624;0.000;0.000;2023-09-18T02:42:36;21.40;99.90
66710;DHT22;53624;0.000;0.000;2023-09-18T02:45:04;21.10;99.90
66710;DHT22;53624;0.000;0.000;2023-09-18T02:47:32;21.10;99.90
66710;DHT22;53624;0.000;0.000;2023-09-18T02:50:01;21.20;99.90
66710;DHT22;53624;0.000;0.000;2023-09-18T02:52:31;21.20;99.90
66710;DHT22;53624;0.000;0.000;2023-09-18T02:54:58;21.10;99.90
66710;DHT22;53624;0.000;0.000;2023-09-18T02:57:25;21.20;99.90
66710;DHT22;53624;0.000;0.000;2023-09-18T02:59:52;21.20;99.90
66710;DHT22;53624;0.000;0.000;2023-09-18T03:02:20;21.30;99.90
66710;DHT22;53624;0.000;0.000;2023-09-18T03:04:47;21.30;99.90
66710;DHT22;53624;0.000;0.000;2023-09-18T03:07:16;21.30;99.90
66710;DHT22;53624;0.000;0.000;2023-09-18T03:09:43;21.20;99.90
66710;DHT22;53624;0.000;0.000;2023-09-18T03:12:11;21.20;99.90
66710;DHT22;53624;0.000;0.000;2023-09-18T03:14:38;21.20;99.90
66710;DHT22;53624;0.000;0.000;2023-09-18T03:17:06;21.10;99.90
66710;DHT22;53624;0.000;0.000;2023-09-18T03:19:33;21.10;99.90
66710;DHT22;53624;0.000;0.000;2023-09-18T03:22:01;21.10;99.90
66710;DHT22;53624;0.000;0.000;2023-09-18T03:24:30;21.00;99.90
66710;DHT22;53624;0.000;0.000;2023-09-18T03:26:58;20.90;99.90
66710;DHT22;53624;0.000;0.000;2023-09-18T03:29:25;20.90;99.90
66710;DHT22;53624;0.000;0.000;2023-09-18T03:31:52;21.00;99.90
66710;DHT22;53624;0.000;0.000;2023-09-18T03:34:24;20.90;99.90
66710;DHT22;53624;0.000;0.000;2023-09-18T03:36:52;21.00;99.90
66710;DHT22;53624;0.000;0.000;2023-09-18T03:39:19;21.10;99.90
66710;DHT22;53624;0.000;0.000;2023-09-18T03:41:48;21.10;99.90
66710;DHT22;53624;0.000;0.000;2023-09-18T03:44:15;21.10;99.90
66710;DHT22;53624;0.000;0.000;2023-09-18T03:46:42;21.10;99.90
66710;DHT22;53624;0.000;0.000;2023-09-18T03:49:10;21.10;99.90
66710;DHT22;53624;0.000;0.000;2023-09-18T03:51:38;21.20;99.90
66710;DHT22;53624;0.000;0.000;2023-09-18T03:54:05;21.20;99.90
66710;DHT22;53624;0.000;0.000;2023-09-18T03:56:32;21.10;99.90
66710;DHT22;53624;0.000;0.000;2023-09-18T03:59:01;21.00;99.90
66710;DHT22;53624;0.000;0.000;2023-09-18T04:01:30;21.00;99.90
66710;DHT22;53624;0.000;0.000;2023-09-18T04:03:57;21.00;99.90
66710;DHT22;53624;0.000;0.000;2023-09-18T04:06:35;21.00;99.90
66710;DHT22;53624;0.000;0.000;2023-09-18T04:09:03;21.00;99.90
66710;DHT22;53624;0.000;0.000;2023-09-18T04:11:30;21.00;99.90
66710;DHT22;53624;0.000;0.000;2023-09-18T04:13:58;21.00;99.90
66710;DHT22;53624;0.000;0.000;2023-09-18T04:16:27;20.90;99.90
66710;DHT22;53624;0.000;0.000;2023-09-18T04:18:55;20.90;99.90
66710;DHT22;53624;0.000;0.000;2023-09-18T04:21:22;21.10;99.90
66710;DHT22;53624;0.000;0.000;2023-09-18T04:23:51;21.00;99.90
66710;DHT22;53624;0.000;0.000;2023-09-18T04:26:23;21.10;99.90
66710;DHT22;53624;0.000;0.000;2023-09-18T04:28:50;21.10;99.90
66710;DHT22;53624;0.000;0.000;2023-09-18T04:31:18;21.10;99.90
66710;DHT22;53624;0.000;0.000;2023-09-18T04:33:47;21.10;99.90
66710;DHT22;53624;0.000;0.000;2023-09-18T04:36:15;21.10;99.90
66710;DHT22;53624;0.000;0.000;2023-09-18T04:38:42;21.10;99.90
66710;DHT22;53624;0.000;0.000;2023-09-18T04:41:10;21.00;99.90
66710;DHT22;53624;0.000;0.000;2023-09-18T04:43:38;21.20;99.90
66710;DHT22;53624;0.000;0.000;2023-09-18T04:46:05;21.30;99.90
66710;DHT22;53624;0.000;0.000;2023-09-18T04:48:33;21.40;99.90
66710;DHT22;53624;0.000;0.000;2023-09-18T04:51:02;21.50;99.90
66710;DHT22;53624;0.000;0.000;2023-09-18T04:53:31;21.50;99.90
66710;DHT22;53624;0.000;0.000;2023-09-18T04:55:59;21.50;99.90
66710;DHT22;53624;0.000;0.000;2023-09-18T04:58:26;21.60;99.90
66710;DHT22;53624;0.000;0.000;2023-09-18T05:00:54;21.60;99.90
66710;DHT22;53624;0.000;0.000;2023-09-18T05:03:21;21.60;99.90
66710;DHT22;53624;0.000;0.000;2023-09-18T05:05:49;21.70;99.90
66710;DHT22;53624;0.000;0.000;2023-09-18T05:08:18;21.70;99.90
66710;DHT22;53624;0.000;0.000;2023-09-18T05:10:45;21.70;99.90
66710;DHT22;53624;0.000;0.000;2023-09-18T05:13:13;21.80;99.90
66710;DHT22;53624;0.000;0.000;2023-09-18T05:15:40;21.80;99.90
66710;DHT22;53624;0.000;0.000;2023-09-18T05:18:08;21.80;99.90
66710;DHT22;53624;0.000;0.000;2023-09-18T05:20:35;21.80;99.90
66710;DHT22;53624;0.000;0.000;2023-09-18T05:23:03;21.80;99.90
66710;DHT22;53624;0.000;0.000;2023-09-18T05:25:32;21.90;99.90
66710;DHT22;53624;0.000;0.000;2023-09-18T05:28:00;21.90;99.90
66710;DHT22;53624;0.000;0.000;2023-09-18T05:30:30;21.90;99.90
66710;DHT22;53624;0.000;0.000;2023-09-18T05:33:00;21.90;99.90
66710;DHT22;53624;0.000;0.000;2023-09-18T05:35:30;21.90;99.90
66710;DHT22;53624;0.000;0.000;2023-09-18T05:37:58;21.90;99.90
66710;DHT22;53624;0.000;0.000;2023-09-18T05:40:25;21.90;99.90
66710;DHT22;53624;0.000;0.000;2023-09-18T05:42:55;21.90;99.90
66710;DHT22;53624;0.000;0.000;2023-09-18T05:45:23;22.00;99.90
66710;DHT22;53624;0.000;0.000;2023-09-18T05:47:51;22.00;99.90
66710;DHT22;53624;0.000;0.000;2023-09-18T05:50:19;22.00;99.90
66710;DHT22;53624;0.000;0.000;2023-09-18T05:52:47;22.00;99.90
66710;DHT22;53624;0.000;0.000;2023-09-18T05:55:14;22.00;99.90
66710;DHT22;53624;0.000;0.000;2023-09-18T05:57:42;22.00;99.90
66710;DHT22;53624;0.000;0.000;2023-09-18T06:00:11;22.00;99.90
66710;DHT22;53624;0.000;0.000;2023-09-18T06:02:40;22.00;99.90
66710;DHT22;53624;0.000;0.000;2023-09-18T06:05:07;22.10;99.90
66710;DHT22;53624;0.000;0.000;2023-09-18T06:07:37;22.00;99.90
66710;DHT22;53624;0.000;0.000;2023-09-18T06:10:04;22.10;99.90
66710;DHT22;53624;0.000;0.000;2023-09-18T06:12:32;22.10;99.90
66710;DHT22;53624;0.000;0.000;2023-09-18T06:14:59;22.10;99.90
66710;DHT22;53624;0.000;0.000;2023-09-18T06:17:28;22.10;99.90
66710;DHT22;53624;0.000;0.000;2023-09-18T06:19:55;22.10;99.90
66710;DHT22;53624;0.000;0.000;2023-09-18T06:22:22;22.10;99.90
66710;DHT22;53624;0.000;0.000;2023-09-18T06:24:50;22.10;99.90
66710;DHT22;53624;0.000;0.000;2023-09-18T06:27:17;22.10;99.90
66710;DHT22;53624;0.000;0.000;2023-09-18T06:29:45;22.10;99.90
66710;DHT22;53624;0.000;0.000;2023-09-18T06:32:12;22.10;99.90
66710;DHT22;53624;0.000;0.000;2023-09-18T06:34:41;22.20;99.90
66710;DHT22;53624;0.000;0.000;2023-09-18T06:37:09;22.10;99.90
66710;DHT22;53624;0.000;0.000;2023-09-18T06:39:38;22.20;99.90
66710;DHT22;53624;0.000;0.000;2023-09-18T06:42:05;22.20;99.90
66710;DHT22;53624;0.000;0.000;2023-09-18T06:44:32;22.10;99.90
66710;DHT22;53624;0.000;0.000;2023-09-18T06:47:00;22.10;99.90
66710;DHT22;53624;0.000;0.000;2023-09-18T06:49:27;22.20;99.90
66710;DHT22;53624;0.000;0.000;2023-09-18T06:51:58;22.10;99.90
66710;DHT22;53624;0.000;0.000;2023-09-18T06:54:25;22.10;99.90
66710;DHT22;53624;0.000;0.000;2023-09-18T06:56:52;22.20;99.90
66710;DHT22;53624;0.000;0.000;2023-09-18T06:59:19;22.10;99.90
66710;DHT22;53624;0.000;0.000;2023-09-18T07:01:47;22.10;99.90
66710;DHT22;53624;0.000;0.000;2023-09-18T07:04:14;22.10;99.90
66710;DHT22;53624;0.000;0.000;2023-09-18T07:06:41;22.20;99.90
66710;DHT22;53624;0.000;0.000;2023-09-18T07:09:10;22.10;99.90
66710;DHT22;53624;0.000;0.000;2023-09-18T07:11:38;22.10;99.90
66710;DHT22;53624;0.000;0.000;2023-09-18T07:14:05;22.10;99.90
66710;DHT22;53624;0.000;0.000;2023-09-18T07:16:33;22.10;99.90
66710;DHT22;53624;0.000;0.000;2023-09-18T07:19:01;22.10;99.90
66710;DHT22;53624;0.000;0.000;2023-09-18T07:21:30;22.10;99.90
66710;DHT22;53624;0.000;0.000;2023-09-18T07:23:57;22.10;99.90
66710;DHT22;53624;0.000;0.000;2023-09-18T07:26:26;22.10;99.90
66710;DHT22;53624;0.000;0.000;2023-09-18T07:28:54;22.20;99.90
66710;DHT22;53624;0.000;0.000;2023-09-18T07:31:21;22.20;99.90
66710;DHT22;53624;0.000;0.000;2023-09-18T07:33:48;22.30;99.90
66710;DHT22;53624;0.000;0.000;2023-09-18T07:36:15;22.20;99.90
66710;DHT22;53624;0.000;0.000;2023-09-18T07:38:43;22.30;99.90
66710;DHT22;53624;0.000;0.000;2023-09-18T07:41:10;22.30;99.90
66710;DHT22;53624;0.000;0.000;2023-09-18T07:43:39;22.30;99.90
66710;DHT22;53624;0.000;0.000;2023-09-18T07:46:07;22.30;99.90
66710;DHT22;53624;0.000;0.000;2023-09-18T07:48:34;22.40;99.90
66710;DHT22;53624;0.000;0.000;2023-09-18T07:51:03;22.40;99.90
66710;DHT22;53624;0.000;0.000;2023-09-18T07:53:31;22.50;99.90
66710;DHT22;53624;0.000;0.000;2023-09-18T07:55:59;22.50;99.90
66710;DHT22;53624;0.000;0.000;2023-09-18T07:58:29;22.60;99.90
66710;DHT22;53624;0.000;0.000;2023-09-18T08:00:57;22.60;99.90
66710;DHT22;53624;0.000;0.000;2023-09-18T08:03:26;22.60;99.90
66710;DHT22;53624;0.000;0.000;2023-09-18T08:05:54;22.50;99.90
66710;DHT22;53624;0.000;0.000;2023-09-18T08:08:21;22.50;99.90
66710;DHT22;53624;0.000;0.000;2023-09-18T08:10:49;22.40;99.90
66710;DHT22;53624;0.000;0.000;2023-09-18T08:13:16;22.50;99.90
66710;DHT22;53624;0.000;0.000;2023-09-18T08:15:44;22.50;99.90
66710;DHT22;53624;0.000;0.000;2023-09-18T08:18:12;22.60;99.90
66710;DHT22;53624;0.000;0.000;2023-09-18T08:20:40;22.70;99.90
66710;DHT22;53624;0.000;0.000;2023-09-18T08:23:08;22.70;99.90
66710;DHT22;53624;0.000;0.000;2023-09-18T08:25:36;22.90;99.90
66710;DHT22;53624;0.000;0.000;2023-09-18T08:28:03;23.00;99.90
66710;DHT22;53624;0.000;0.000;2023-09-18T08:30:32;23.10;99.90
66710;DHT22;53624;0.000;0.000;2023-09-18T08:32:59;23.20;99.90
66710;DHT22;53624;0.000;0.000;2023-09-18T08:35:28;23.20;99.90
66710;DHT22;53624;0.000;0.000;2023-09-18T08:37:56;23.20;99.90
66710;DHT22;53624;0.000;0.000;2023-09-18T08:40:23;23.20;99.90
66710;DHT22;53624;0.000;0.000;2023-09-18T08:42:51;23.20;99.90
66710;DHT22;53624;0.000;0.000;2023-09-18T08:45:22;23.20;99.90
66710;DHT22;53624;0.000;0.000;2023-09-18T08:47:49;23.20;99.90
66710;DHT22;53624;0.000;0.000;2023-09-18T08:50:19;23.10;99.90
66710;DHT22;53624;0.000;0.000;2023-09-18T08:52:48;23.10;99.90
66710;DHT22;53624;0.000;0.000;2023-09-18T08:55:16;23.10;99.90
66710;DHT22;53624;0.000;0.000;2023-09-18T08:57:43;23.10;99.90
66710;DHT22;53624;0.000;0.000;2023-09-18T09:00:12;23.10;99.90
66710;DHT22;53624;0.000;0.000;2023-09-18T09:02:43;23.00;99.90
66710;DHT22;53624;0.000;0.000;2023-09-18T09:05:10;23.00;99.90
66710;DHT22;53624;0.000;0.000;2023-09-18T09:07:38;23.00;99.90
66710;DHT22;53624;0.000;0.000;2023-09-18T09:10:07;23.00;99.90
66710;DHT22;53624;0.000;0.000;2023-09-18T09:15:16;22.90;99.90
66710;DHT22;53624;0.000;0.000;2023-09-18T09:17:44;22.90;99.90
66710;DHT22;53624;0.000;0.000;2023-09-18T09:20:12;22.90;99.90
66710;DHT22;53624;0.000;0.000;2023-09-18T09:22:40;22.90;99.90
66710;DHT22;53624;0.000;0.000;2023-09-18T09:28:04;22.90;99.90
66710;DHT22;53624;0.000;0.000;2023-09-18T09:30:32;22.80;99.90
66710;DHT22;53624;0.000;0.000;2023-09-18T09:32:59;22.80;99.90
66710;DHT22;53624;0.000;0.000;2023-09-18T09:35:28;22.80;99.90
66710;DHT22;53624;0.000;0.000;2023-09-18T09:37:58;22.80;99.90
66710;DHT22;53624;0.000;0.000;2023-09-18T09:40:26;22.80;99.90
66710;DHT22;53624;0.000;0.000;2023-09-18T09:42:55;22.70;99.90
66710;DHT22;53624;0.000;0.000;2023-09-18T09:45:28;22.70;99.90
66710;DHT22;53624;0.000;0.000;2023-09-18T09:47:56;22.70;99.90
66710;DHT22;53624;0.000;0.000;2023-09-18T09:50:24;22.80;99.90
66710;DHT22;53624;0.000;0.000;2023-09-18T09:52:53;22.80;99.90
66710;DHT22;53624;0.000;0.000;2023-09-18T09:55:22;22.90;99.90
66710;DHT22;53624;0.000;0.000;2023-09-18T09:57:50;22.90;99.90
66710;DHT22;53624;0.000;0.000;2023-09-18T10:00:18;22.90;99.90
66710;DHT22;53624;0.000;0.000;2023-09-18T10:03:03;23.00;99.90
66710;DHT22;53624;0.000;0.000;2023-09-18T10:05:31;23.10;99.90
66710;DHT22;53624;0.000;0.000;2023-09-18T10:08:02;23.10;99.90
66710;DHT22;53624;0.000;0.000;2023-09-18T10:10:31;23.00;99.90
66710;DHT22;53624;0.000;0.000;2023-09-18T10:13:12;22.90;99.90
66710;DHT22;53624;0.000;0.000;2023-09-18T10:15:42;22.90;99.90
66710;DHT22;53624;0.000;0.000;2023-09-18T10:18:18;22.80;99.90
66710;DHT22;53624;0.000;0.000;2023-09-18T10:20:46;22.80;99.90
66710;DHT22;53624;0.000;0.000;2023-09-18T10:23:18;22.80;99.90
66710;DHT22;53624;0.000;0.000;2023-09-18T10:25:51;22.70;99.90
66710;DHT22;53624;0.000;0.000;2023-09-18T10:28:21;22.70;99.90
66710;DHT22;53624;0.000;0.000;2023-09-18T10:30:49;22.70;99.90
66710;DHT22;53624;0.000;0.000;2023-09-18T10:33:19;22.70;99.90
66710;DHT22;53624;0.000;0.000;2023-09-18T10:35:46;22.70;99.90
66710;DHT22;53624;0.000;0.000;2023-09-18T10:38:14;22.60;99.90
66710;DHT22;53624;0.000;0.000;2023-09-18T10:40:42;22.60;99.90
66710;DHT22;53624;0.000;0.000;2023-09-18T10:43:10;22.60;99.90
66710;DHT22;53624;0.000;0.000;2023-09-18T10:45:38;22.60;99.90
66710;DHT22;53624;0.000;0.000;2023-09-18T10:48:21;22.60;99.90
66710;DHT22;53624;0.000;0.000;2023-09-18T10:50:50;22.60;99.90
66710;DHT22;53624;0.000;0.000;2023-09-18T10:53:18;22.50;99.90
66710;DHT22;53624;0.000;0.000;2023-09-18T10:55:46;22.50;99.90
66710;DHT22;53624;0.000;0.000;2023-09-18T10:58:13;22.50;99.90
66710;DHT22;53624;0.000;0.000;2023-09-18T11:00:50;22.50;99.90
66710;DHT22;53624;0.000;0.000;2023-09-18T11:03:18;22.40;99.90
66710;DHT22;53624;0.000;0.000;2023-09-18T11:05:47;22.40;99.90
66710;DHT22;53624;0.000;0.000;2023-09-18T11:08:26;22.40;99.90
66710;DHT22;53624;0.000;0.000;2023-09-18T11:11:00;22.40;99.90
66710;DHT22;53624;0.000;0.000;2023-09-18T11:13:31;22.40;99.90
66710;DHT22;53624;0.000;0.000;2023-09-18T11:16:02;22.40;99.90
66710;DHT22;53624;0.000;0.000;2023-09-18T11:18:32;22.40;99.90
66710;DHT22;53624;0.000;0.000;2023-09-18T11:21:08;22.40;99.90
66710;DHT22;53624;0.000;0.000;2023-09-18T11:23:36;22.40;99.90
66710;DHT22;53624;0.000;0.000;2023-09-18T11:26:04;22.30;99.90
66710;DHT22;53624;0.000;0.000;2023-09-18T11:28:32;22.30;99.90
66710;DHT22;53624;0.000;0.000;2023-09-18T11:30:59;22.30;99.90
66710;DHT22;53624;0.000;0.000;2023-09-18T11:33:35;22.30;99.90
66710;DHT22;53624;0.000;0.000;2023-09-18T11:36:07;22.30;99.90
66710;DHT22;53624;0.000;0.000;2023-09-18T11:38:53;22.30;99.90
66710;DHT22;53624;0.000;0.000;2023-09-18T11:41:22;22.30;99.90
66710;DHT22;53624;0.000;0.000;2023-09-18T11:43:50;22.30;99.90
66710;DHT22;53624;0.000;0.000;2023-09-18T11:46:18;22.30;99.90
66710;DHT22;53624;0.000;0.000;2023-09-18T11:48:47;22.40;99.90
66710;DHT22;53624;0.000;0.000;2023-09-18T11:51:21;22.40;99.90
66710;DHT22;53624;0.000;0.000;2023-09-18T11:53:49;22.30;99.90
66710;DHT22;53624;0.000;0.000;2023-09-18T11:56:18;22.30;99.90
66710;DHT22;53624;0.000;0.000;2023-09-18T11:58:46;22.30;99.90
66710;DHT22;53624;0.000;0.000;2023-09-18T12:01:14;22.30;99.90
66710;DHT22;53624;0.000;0.000;2023-09-18T12:03:42;22.30;99.90
66710;DHT22;53624;0.000;0.000;2023-09-18T12:06:09;22.20;99.90
66710;DHT22;53624;0.000;0.000;2023-09-18T12:08:40;22.20;99.90
66710;DHT22;53624;0.000;0.000;2023-09-18T12:11:08;22.20;99.90
66710;DHT22;53624;0.000;0.000;2023-09-18T12:13:35;22.30;99.90
66710;DHT22;53624;0.000;0.000;2023-09-18T12:16:03;22.20;99.90
66710;DHT22;53624;0.000;0.000;2023-09-18T12:18:31;22.20;99.90
66710;DHT22;53624;0.000;0.000;2023-09-18T12:21:01;22.20;99.90
66710;DHT22;53624;0.000;0.000;2023-09-18T12:23:37;22.20;99.90
66710;DHT22;53624;0.000;0.000;2023-09-18T12:26:06;22.20;99.90
66710;DHT22;53624;0.000;0.000;2023-09-18T12:28:35;22.20;99.90
66710;DHT22;53624;0.000;0.000;2023-09-18T12:31:02;22.20;99.90
66710;DHT22;53624;0.000;0.000;2023-09-18T12:33:33;22.20;99.90
66710;DHT22;53624;0.000;0.000;2023-09-18T12:36:01;22.20;99.90
66710;DHT22;53624;0.000;0.000;2023-09-18T12:38:30;22.10;99.90
66710;DHT22;53624;0.000;0.000;2023-09-18T12:40:57;22.10;99.90
66710;DHT22;53624;0.000;0.000;2023-09-18T12:43:34;22.10;99.90
66710;DHT22;53624;0.000;0.000;2023-09-18T12:46:03;22.10;99.90
66710;DHT22;53624;0.000;0.000;2023-09-18T12:48:31;22.10;99.90
66710;DHT22;53624;0.000;0.000;2023-09-18T12:51:04;22.10;99.90
66710;DHT22;53624;0.000;0.000;2023-09-18T12:53:31;22.10;99.90
66710;DHT22;53624;0.000;0.000;2023-09-18T12:56:05;22.10;99.90
66710;DHT22;53624;0.000;0.000;2023-09-18T12:58:34;22.10;99.90
66710;DHT22;53624;0.000;0.000;2023-09-18T13:01:03;22.10;99.90
66710;DHT22;53624;0.000;0.000;2023-09-18T13:03:34;22.10;99.90
66710;DHT22;53624;0.000;0.000;2023-09-18T13:06:08;22.10;99.90
66710;DHT22;53624;0.000;0.000;2023-09-18T13:08:35;22.10;99.90
66710;DHT22;53624;0.000;0.000;2023-09-18T13:11:02;22.10;99.90
66710;DHT22;53624;0.000;0.000;2023-09-18T13:13:30;22.00;99.90
66710;DHT22;53624;0.000;0.000;2023-09-18T13:15:59;22.00;99.90
66710;DHT22;53624;0.000;0.000;2023-09-18T13:18:26;22.00;99.90
66710;DHT22;53624;0.000;0.000;2023-09-18T13:20:54;22.00;99.90
66710;DHT22;53624;0.000;0.000;2023-09-18T13:23:27;22.00;99.90
66710;DHT22;53624;0.000;0.000;2023-09-18T13:25:58;22.00;99.90
66710;DHT22;53624;0.000;0.000;2023-09-18T13:28:26;22.00;99.90
66710;DHT22;53624;0.000;0.000;2023-09-18T13:30:54;22.00;99.90
66710;DHT22;53624;0.000;0.000;2023-09-18T13:33:23;22.00;99.90
66710;DHT22;53624;0.000;0.000;2023-09-18T13:35:51;22.00;99.90
66710;DHT22;53624;0.000;0.000;2023-09-18T13:38:21;22.00;99.90
66710;DHT22;53624;0.000;0.000;2023-09-18T13:40:49;22.00;99.90
66710;DHT22;53624;0.000;0.000;2023-09-18T13:43:16;21.90;99.90
66710;DHT22;53624;0.000;0.000;2023-09-18T13:45:47;22.00;99.90
66710;DHT22;53624;0.000;0.000;2023-09-18T13:48:17;22.00;99.90
66710;DHT22;53624;0.000;0.000;2023-09-18T13:50:46;22.00;99.90
66710;DHT22;53624;0.000;0.000;2023-09-18T13:53:14;22.00;99.90
66710;DHT22;53624;0.000;0.000;2023-09-18T13:55:41;22.00;99.90
66710;DHT22;53624;0.000;0.000;2023-09-18T13:58:09;22.00;99.90
66710;DHT22;53624;0.000;0.000;2023-09-18T14:00:36;22.00;99.90
66710;DHT22;53624;0.000;0.000;2023-09-18T14:03:04;22.00;99.90
66710;DHT22;53624;0.000;0.000;2023-09-18T14:05:31;22.10;99.90
66710;DHT22;53624;0.000;0.000;2023-09-18T14:08:01;22.10;99.90
66710;DHT22;53624;0.000;0.000;2023-09-18T14:10:29;22.10;99.90
66710;DHT22;53624;0.000;0.000;2023-09-18T14:12:57;22.10;99.90
66710;DHT22;53624;0.000;0.000;2023-09-18T14:15:24;22.10;99.90
66710;DHT22;53624;0.000;0.000;2023-09-18T14:17:51;22.10;99.90
66710;DHT22;53624;0.000;0.000;2023-09-18T14:20:20;22.00;99.90
66710;DHT22;53624;0.000;0.000;2023-09-18T14:22:47;22.10;99.90
66710;DHT22;53624;0.000;0.000;2023-09-18T14:25:17;22.10;99.90
66710;DHT22;53624;0.000;0.000;2023-09-18T14:27:45;22.10;99.90
66710;DHT22;53624;0.000;0.000;2023-09-18T14:30:13;22.10;99.90
66710;DHT22;53624;0.000;0.000;2023-09-18T14:32:40;22.10;99.90
66710;DHT22;53624;0.000;0.000;2023-09-18T14:35:08;22.10;99.90
66710;DHT22;53624;0.000;0.000;2023-09-18T14:37:35;22.10;99.90
66710;DHT22;53624;0.000;0.000;2023-09-18T14:40:02;22.20;99.90
66710;DHT22;53624;0.000;0.000;2023-09-18T14:42:31;22.20;99.90
66710;DHT22;53624;0.000;0.000;2023-09-18T14:44:59;22.30;99.90
66710;DHT22;53624;0.000;0.000;2023-09-18T14:47:27;22.40;99.90
66710;DHT22;53624;0.000;0.000;2023-09-18T14:49:54;22.50;99.90
66710;DHT22;53624;0.000;0.000;2023-09-18T14:52:21;22.60;99.90
66710;DHT22;53624;0.000;0.000;2023-09-18T14:54:51;22.60;99.90
66710;DHT22;53624;0.000;0.000;2023-09-18T14:57:18;22.70;99.90
66710;DHT22;53624;0.000;0.000;2023-09-18T14:59:47;22.70;99.90
66710;DHT22;53624;0.000;0.000;2023-09-18T15:02:15;22.70;99.90
66710;DHT22;53624;0.000;0.000;2023-09-18T15:04:43;22.70;99.90
66710;DHT22;53624;0.000;0.000;2023-09-18T15:07:11;22.70;99.90
66710;DHT22;53624;0.000;0.000;2023-09-18T15:09:38;22.80;99.90
66710;DHT22;53624;0.000;0.000;2023-09-18T15:12:07;22.80;99.90
66710;DHT22;53624;0.000;0.000;2023-09-18T15:14:37;22.80;99.90
66710;DHT22;53624;0.000;0.000;2023-09-18T15:17:06;22.90;99.90
66710;DHT22;53624;0.000;0.000;2023-09-18T15:19:33;22.90;99.90
66710;DHT22;53624;0.000;0.000;2023-09-18T15:22:01;22.90;99.90
66710;DHT22;53624;0.000;0.000;2023-09-18T15:24:29;22.90;99.90
66710;DHT22;53624;0.000;0.000;2023-09-18T15:26:56;22.90;99.90
66710;DHT22;53624;0.000;0.000;2023-09-18T15:29:23;22.90;99.90
66710;DHT22;53624;0.000;0.000;2023-09-18T15:31:53;22.90;99.90
66710;DHT22;53624;0.000;0.000;2023-09-18T15:34:22;22.90;99.90
66710;DHT22;53624;0.000;0.000;2023-09-18T15:36:50;23.00;99.90
66710;DHT22;53624;0.000;0.000;2023-09-18T15:39:18;23.00;99.90
66710;DHT22;53624;0.000;0.000;2023-09-18T15:41:45;23.00;99.90
66710;DHT22;53624;0.000;0.000;2023-09-18T15:44:13;23.00;99.90
66710;DHT22;53624;0.000;0.000;2023-09-18T15:46:40;23.00;99.90
66710;DHT22;53624;0.000;0.000;2023-09-18T15:49:07;23.00;99.90
66710;DHT22;53624;0.000;0.000;2023-09-18T15:51:36;23.00;99.90
66710;DHT22;53624;0.000;0.000;2023-09-18T15:54:04;23.00;99.90
66710;DHT22;53624;0.000;0.000;2023-09-18T15:56:32;23.00;99.90
66710;DHT22;53624;0.000;0.000;2023-09-18T15:58:59;22.90;99.90